sensor_id;sensor_type;location;lat;lon;timestamp;P1;durP1;ratioP1;P2;durP2;ratioP2
70071;SDS011;57434;42.794;23.302;2023-10-13T00:00:34;16.03;;;7.00;;
70071;SDS011;57434;42.794;23.302;2023-10-13T00:01:36;14.20;;;6.60;;
70071;SDS011;57434;42.794;23.302;2023-10-13T00:02:38;11.52;;;6.10;;
70071;SDS011;57434;42.794;23.302;2023-10-13T00:03:39;19.20;;;6.68;;
70071;SDS011;57434;42.794;23.302;2023-10-13T00:04:41;13.55;;;6.30;;
70071;SDS011;57434;42.794;23.302;2023-10-13T00:05:43;17.92;;;6.35;;
70071;SDS011;57434;42.794;23.302;2023-10-13T00:06:45;14.23;;;5.97;;
70071;SDS011;57434;42.794;23.302;2023-10-13T00:07:47;15.07;;;6.57;;
70071;SDS011;57434;42.794;23.302;2023-10-13T00:08:48;11.70;;;5.85;;
70071;SDS011;57434;42.794;23.302;2023-10-13T00:09:50;15.45;;;6.32;;
70071;SDS011;57434;42.794;23.302;2023-10-13T00:10:51;16.43;;;7.27;;
70071;SDS011;57434;42.794;23.302;2023-10-13T00:11:53;12.52;;;6.32;;
70071;SDS011;57434;42.794;23.302;2023-10-13T00:12:54;15.73;;;6.75;;
70071;SDS011;57434;42.794;23.302;2023-10-13T00:13:56;12.73;;;6.22;;
70071;SDS011;57434;42.794;23.302;2023-10-13T00:14:57;14.13;;;6.47;;
70071;SDS011;57434;42.794;23.302;2023-10-13T00:15:59;16.42;;;6.32;;
70071;SDS011;57434;42.794;23.302;2023-10-13T00:17:01;20.42;;;6.10;;
70071;SDS011;57434;42.794;23.302;2023-10-13T00:18:04;9.40;;;4.88;;
70071;SDS011;57434;42.794;23.302;2023-10-13T00:19:06;12.43;;;5.18;;
70071;SDS011;57434;42.794;23.302;2023-10-13T00:20:08;12.57;;;4.65;;
70071;SDS011;57434;42.794;23.302;2023-10-13T00:21:10;11.07;;;4.93;;
70071;SDS011;57434;42.794;23.302;2023-10-13T00:22:15;14.10;;;4.82;;
70071;SDS011;57434;42.794;23.302;2023-10-13T00:23:16;10.35;;;4.70;;
70071;SDS011;57434;42.794;23.302;2023-10-13T00:24:18;13.70;;;5.43;;
70071;SDS011;57434;42.794;23.302;2023-10-13T00:25:20;10.90;;;5.07;;
70071;SDS011;57434;42.794;23.302;2023-10-13T00:26:22;8.48;;;4.50;;
70071;SDS011;57434;42.794;23.302;2023-10-13T00:27:24;10.65;;;4.65;;
70071;SDS011;57434;42.794;23.302;2023-10-13T00:28:26;13.65;;;4.75;;
70071;SDS011;57434;42.794;23.302;2023-10-13T00:29:28;8.38;;;3.72;;
70071;SDS011;57434;42.794;23.302;2023-10-13T00:30:30;10.35;;;4.25;;
70071;SDS011;57434;42.794;23.302;2023-10-13T00:31:31;11.80;;;4.60;;
70071;SDS011;57434;42.794;23.302;2023-10-13T00:32:33;9.93;;;4.32;;
70071;SDS011;57434;42.794;23.302;2023-10-13T00:33:35;10.68;;;4.70;;
70071;SDS011;57434;42.794;23.302;2023-10-13T00:34:36;10.27;;;4.60;;
70071;SDS011;57434;42.794;23.302;2023-10-13T00:35:38;8.60;;;3.92;;
70071;SDS011;57434;42.794;23.302;2023-10-13T00:36:44;11.10;;;4.70;;
70071;SDS011;57434;42.794;23.302;2023-10-13T00:37:45;8.45;;;3.83;;
70071;SDS011;57434;42.794;23.302;2023-10-13T00:38:47;8.05;;;3.88;;
70071;SDS011;57434;42.794;23.302;2023-10-13T00:39:49;9.48;;;4.45;;
70071;SDS011;57434;42.794;23.302;2023-10-13T00:40:50;9.43;;;4.10;;
70071;SDS011;57434;42.794;23.302;2023-10-13T00:41:52;9.93;;;4.17;;
70071;SDS011;57434;42.794;23.302;2023-10-13T00:42:53;8.35;;;3.80;;
70071;SDS011;57434;42.794;23.302;2023-10-13T00:43:55;12.10;;;4.43;;
70071;SDS011;57434;42.794;23.302;2023-10-13T00:44:57;10.85;;;4.70;;
70071;SDS011;57434;42.794;23.302;2023-10-13T00:45:59;11.00;;;5.05;;
70071;SDS011;57434;42.794;23.302;2023-10-13T00:47:01;9.23;;;4.22;;
70071;SDS011;57434;42.794;23.302;2023-10-13T00:48:03;9.05;;;4.40;;
70071;SDS011;57434;42.794;23.302;2023-10-13T00:49:05;8.85;;;4.45;;
70071;SDS011;57434;42.794;23.302;2023-10-13T00:50:07;9.90;;;4.65;;
70071;SDS011;57434;42.794;23.302;2023-10-13T00:51:09;9.57;;;4.63;;
70071;SDS011;57434;42.794;23.302;2023-10-13T00:52:11;11.57;;;4.40;;
70071;SDS011;57434;42.794;23.302;2023-10-13T00:53:13;10.20;;;4.47;;
70071;SDS011;57434;42.794;23.302;2023-10-13T00:54:14;11.25;;;3.83;;
70071;SDS011;57434;42.794;23.302;2023-10-13T00:55:17;11.95;;;4.63;;
70071;SDS011;57434;42.794;23.302;2023-10-13T00:56:19;10.10;;;4.38;;
70071;SDS011;57434;42.794;23.302;2023-10-13T00:57:21;10.68;;;4.15;;
70071;SDS011;57434;42.794;23.302;2023-10-13T00:58:23;9.57;;;4.18;;
70071;SDS011;57434;42.794;23.302;2023-10-13T00:59:24;8.68;;;4.35;;
70071;SDS011;57434;42.794;23.302;2023-10-13T01:00:26;8.90;;;4.65;;
70071;SDS011;57434;42.794;23.302;2023-10-13T01:01:28;10.52;;;4.60;;
70071;SDS011;57434;42.794;23.302;2023-10-13T01:02:30;11.87;;;4.87;;
70071;SDS011;57434;42.794;23.302;2023-10-13T01:03:31;8.30;;;4.28;;
70071;SDS011;57434;42.794;23.302;2023-10-13T01:04:33;10.18;;;5.38;;
70071;SDS011;57434;42.794;23.302;2023-10-13T01:05:35;11.68;;;5.30;;
70071;SDS011;57434;42.794;23.302;2023-10-13T01:06:37;8.07;;;4.65;;
70071;SDS011;57434;42.794;23.302;2023-10-13T01:07:38;12.60;;;4.32;;
70071;SDS011;57434;42.794;23.302;2023-10-13T01:08:40;13.18;;;5.43;;
70071;SDS011;57434;42.794;23.302;2023-10-13T01:09:42;11.38;;;4.93;;
70071;SDS011;57434;42.794;23.302;2023-10-13T01:10:44;8.98;;;4.68;;
70071;SDS011;57434;42.794;23.302;2023-10-13T01:11:46;9.77;;;4.97;;
70071;SDS011;57434;42.794;23.302;2023-10-13T01:12:48;10.80;;;4.63;;
70071;SDS011;57434;42.794;23.302;2023-10-13T01:13:49;11.52;;;5.28;;
70071;SDS011;57434;42.794;23.302;2023-10-13T01:14:51;16.77;;;6.03;;
70071;SDS011;57434;42.794;23.302;2023-10-13T01:15:53;12.05;;;4.70;;
70071;SDS011;57434;42.794;23.302;2023-10-13T01:16:54;12.75;;;5.18;;
70071;SDS011;57434;42.794;23.302;2023-10-13T01:18:06;13.25;;;5.53;;
70071;SDS011;57434;42.794;23.302;2023-10-13T01:19:08;10.77;;;5.35;;
70071;SDS011;57434;42.794;23.302;2023-10-13T01:20:10;11.45;;;5.40;;
70071;SDS011;57434;42.794;23.302;2023-10-13T01:21:11;12.60;;;4.80;;
70071;SDS011;57434;42.794;23.302;2023-10-13T01:22:13;10.55;;;5.10;;
70071;SDS011;57434;42.794;23.302;2023-10-13T01:23:15;10.53;;;4.73;;
70071;SDS011;57434;42.794;23.302;2023-10-13T01:24:16;12.27;;;4.40;;
70071;SDS011;57434;42.794;23.302;2023-10-13T01:25:18;11.45;;;4.72;;
70071;SDS011;57434;42.794;23.302;2023-10-13T01:26:19;9.05;;;4.45;;
70071;SDS011;57434;42.794;23.302;2023-10-13T01:27:21;10.55;;;4.10;;
70071;SDS011;57434;42.794;23.302;2023-10-13T01:30:00;8.07;;;4.20;;
70071;SDS011;57434;42.794;23.302;2023-10-13T01:31:02;10.05;;;3.97;;
70071;SDS011;57434;42.794;23.302;2023-10-13T01:32:04;10.27;;;4.55;;
70071;SDS011;57434;42.794;23.302;2023-10-13T01:33:06;10.57;;;4.65;;
70071;SDS011;57434;42.794;23.302;2023-10-13T01:34:07;7.30;;;3.83;;
70071;SDS011;57434;42.794;23.302;2023-10-13T01:35:09;9.98;;;3.97;;
70071;SDS011;57434;42.794;23.302;2023-10-13T01:36:11;11.85;;;4.18;;
70071;SDS011;57434;42.794;23.302;2023-10-13T01:37:12;10.30;;;4.18;;
70071;SDS011;57434;42.794;23.302;2023-10-13T01:38:14;10.50;;;4.20;;
70071;SDS011;57434;42.794;23.302;2023-10-13T01:39:16;11.20;;;4.60;;
70071;SDS011;57434;42.794;23.302;2023-10-13T01:40:17;9.55;;;4.38;;
70071;SDS011;57434;42.794;23.302;2023-10-13T01:41:20;14.30;;;3.95;;
70071;SDS011;57434;42.794;23.302;2023-10-13T01:42:22;12.55;;;4.80;;
70071;SDS011;57434;42.794;23.302;2023-10-13T01:43:24;9.38;;;4.70;;
70071;SDS011;57434;42.794;23.302;2023-10-13T01:44:26;10.43;;;4.70;;
70071;SDS011;57434;42.794;23.302;2023-10-13T01:45:28;9.15;;;4.18;;
70071;SDS011;57434;42.794;23.302;2023-10-13T01:46:29;10.82;;;4.95;;
70071;SDS011;57434;42.794;23.302;2023-10-13T01:47:31;10.60;;;4.63;;
70071;SDS011;57434;42.794;23.302;2023-10-13T01:48:33;12.70;;;5.78;;
70071;SDS011;57434;42.794;23.302;2023-10-13T01:49:35;13.98;;;5.93;;
70071;SDS011;57434;42.794;23.302;2023-10-13T01:50:36;10.85;;;5.60;;
70071;SDS011;57434;42.794;23.302;2023-10-13T01:51:38;13.48;;;5.32;;
70071;SDS011;57434;42.794;23.302;2023-10-13T01:52:39;13.55;;;5.18;;
70071;SDS011;57434;42.794;23.302;2023-10-13T01:53:41;8.52;;;4.47;;
70071;SDS011;57434;42.794;23.302;2023-10-13T01:54:46;11.53;;;5.10;;
70071;SDS011;57434;42.794;23.302;2023-10-13T01:55:48;9.90;;;4.50;;
70071;SDS011;57434;42.794;23.302;2023-10-13T01:56:50;13.32;;;5.15;;
70071;SDS011;57434;42.794;23.302;2023-10-13T01:57:51;13.38;;;5.50;;
70071;SDS011;57434;42.794;23.302;2023-10-13T01:58:53;12.30;;;5.43;;
70071;SDS011;57434;42.794;23.302;2023-10-13T01:59:54;12.95;;;5.32;;
70071;SDS011;57434;42.794;23.302;2023-10-13T02:02:34;12.95;;;5.15;;
70071;SDS011;57434;42.794;23.302;2023-10-13T02:03:37;14.15;;;5.22;;
70071;SDS011;57434;42.794;23.302;2023-10-13T02:04:40;11.35;;;4.57;;
70071;SDS011;57434;42.794;23.302;2023-10-13T02:05:42;9.83;;;4.83;;
70071;SDS011;57434;42.794;23.302;2023-10-13T02:06:44;9.73;;;4.38;;
70071;SDS011;57434;42.794;23.302;2023-10-13T02:07:45;9.32;;;4.22;;
70071;SDS011;57434;42.794;23.302;2023-10-13T02:08:47;9.57;;;5.05;;
70071;SDS011;57434;42.794;23.302;2023-10-13T02:09:49;10.80;;;4.32;;
70071;SDS011;57434;42.794;23.302;2023-10-13T02:10:51;9.40;;;4.38;;
70071;SDS011;57434;42.794;23.302;2023-10-13T02:11:52;8.60;;;4.50;;
70071;SDS011;57434;42.794;23.302;2023-10-13T02:12:54;8.07;;;3.97;;
70071;SDS011;57434;42.794;23.302;2023-10-13T02:13:55;12.18;;;4.45;;
70071;SDS011;57434;42.794;23.302;2023-10-13T02:14:57;8.70;;;4.00;;
70071;SDS011;57434;42.794;23.302;2023-10-13T02:15:58;9.63;;;4.77;;
70071;SDS011;57434;42.794;23.302;2023-10-13T02:17:00;10.57;;;4.07;;
70071;SDS011;57434;42.794;23.302;2023-10-13T02:18:02;10.18;;;4.40;;
70071;SDS011;57434;42.794;23.302;2023-10-13T02:19:03;10.55;;;4.60;;
70071;SDS011;57434;42.794;23.302;2023-10-13T02:20:06;10.10;;;3.88;;
70071;SDS011;57434;42.794;23.302;2023-10-13T02:21:07;13.93;;;5.13;;
70071;SDS011;57434;42.794;23.302;2023-10-13T02:22:09;10.52;;;4.43;;
70071;SDS011;57434;42.794;23.302;2023-10-13T02:23:11;10.35;;;5.10;;
70071;SDS011;57434;42.794;23.302;2023-10-13T02:24:13;11.00;;;4.75;;
70071;SDS011;57434;42.794;23.302;2023-10-13T02:25:17;10.73;;;5.18;;
70071;SDS011;57434;42.794;23.302;2023-10-13T02:26:19;11.03;;;4.90;;
70071;SDS011;57434;42.794;23.302;2023-10-13T02:27:21;10.93;;;5.13;;
70071;SDS011;57434;42.794;23.302;2023-10-13T02:28:23;10.85;;;5.07;;
70071;SDS011;57434;42.794;23.302;2023-10-13T02:29:24;11.00;;;5.68;;
70071;SDS011;57434;42.794;23.302;2023-10-13T02:30:26;13.07;;;5.35;;
70071;SDS011;57434;42.794;23.302;2023-10-13T02:31:27;12.60;;;5.10;;
70071;SDS011;57434;42.794;23.302;2023-10-13T02:32:29;11.10;;;4.90;;
70071;SDS011;57434;42.794;23.302;2023-10-13T02:33:31;8.30;;;4.20;;
70071;SDS011;57434;42.794;23.302;2023-10-13T02:34:32;11.00;;;4.63;;
70071;SDS011;57434;42.794;23.302;2023-10-13T02:35:34;9.55;;;4.70;;
70071;SDS011;57434;42.794;23.302;2023-10-13T02:36:36;12.30;;;5.03;;
70071;SDS011;57434;42.794;23.302;2023-10-13T02:37:38;9.23;;;4.30;;
70071;SDS011;57434;42.794;23.302;2023-10-13T02:38:39;11.93;;;4.65;;
70071;SDS011;57434;42.794;23.302;2023-10-13T02:39:41;10.23;;;4.10;;
70071;SDS011;57434;42.794;23.302;2023-10-13T02:40:42;9.27;;;3.88;;
70071;SDS011;57434;42.794;23.302;2023-10-13T02:41:44;8.25;;;3.40;;
70071;SDS011;57434;42.794;23.302;2023-10-13T02:42:46;8.93;;;4.00;;
70071;SDS011;57434;42.794;23.302;2023-10-13T02:43:47;9.70;;;3.50;;
70071;SDS011;57434;42.794;23.302;2023-10-13T02:44:49;7.60;;;4.00;;
70071;SDS011;57434;42.794;23.302;2023-10-13T02:45:54;9.68;;;3.67;;
70071;SDS011;57434;42.794;23.302;2023-10-13T02:46:55;8.93;;;4.10;;
70071;SDS011;57434;42.794;23.302;2023-10-13T02:47:57;8.45;;;3.33;;
70071;SDS011;57434;42.794;23.302;2023-10-13T02:48:59;7.15;;;3.55;;
70071;SDS011;57434;42.794;23.302;2023-10-13T02:50:01;7.30;;;3.78;;
70071;SDS011;57434;42.794;23.302;2023-10-13T02:51:02;8.00;;;3.75;;
70071;SDS011;57434;42.794;23.302;2023-10-13T02:52:04;6.25;;;2.90;;
70071;SDS011;57434;42.794;23.302;2023-10-13T02:53:05;10.40;;;3.75;;
70071;SDS011;57434;42.794;23.302;2023-10-13T02:54:07;9.60;;;3.65;;
70071;SDS011;57434;42.794;23.302;2023-10-13T02:55:09;8.45;;;3.60;;
70071;SDS011;57434;42.794;23.302;2023-10-13T02:56:10;9.95;;;3.35;;
70071;SDS011;57434;42.794;23.302;2023-10-13T02:57:12;9.03;;;3.70;;
70071;SDS011;57434;42.794;23.302;2023-10-13T02:58:14;7.80;;;3.50;;
70071;SDS011;57434;42.794;23.302;2023-10-13T02:59:15;8.07;;;3.60;;
70071;SDS011;57434;42.794;23.302;2023-10-13T03:00:17;9.63;;;3.63;;
70071;SDS011;57434;42.794;23.302;2023-10-13T03:01:19;8.65;;;3.70;;
70071;SDS011;57434;42.794;23.302;2023-10-13T03:02:21;12.55;;;4.40;;
70071;SDS011;57434;42.794;23.302;2023-10-13T03:03:22;8.40;;;3.90;;
70071;SDS011;57434;42.794;23.302;2023-10-13T03:04:24;9.63;;;4.30;;
70071;SDS011;57434;42.794;23.302;2023-10-13T03:05:26;10.38;;;4.25;;
70071;SDS011;57434;42.794;23.302;2023-10-13T03:06:28;8.15;;;4.78;;
70071;SDS011;57434;42.794;23.302;2023-10-13T03:07:29;11.37;;;4.03;;
70071;SDS011;57434;42.794;23.302;2023-10-13T03:08:32;11.15;;;4.47;;
70071;SDS011;57434;42.794;23.302;2023-10-13T03:09:34;12.13;;;4.80;;
70071;SDS011;57434;42.794;23.302;2023-10-13T03:10:35;9.43;;;4.25;;
70071;SDS011;57434;42.794;23.302;2023-10-13T03:11:37;9.25;;;3.85;;
70071;SDS011;57434;42.794;23.302;2023-10-13T03:12:39;8.55;;;4.03;;
70071;SDS011;57434;42.794;23.302;2023-10-13T03:13:41;12.43;;;4.13;;
70071;SDS011;57434;42.794;23.302;2023-10-13T03:14:43;9.70;;;3.42;;
70071;SDS011;57434;42.794;23.302;2023-10-13T03:15:44;7.72;;;3.53;;
70071;SDS011;57434;42.794;23.302;2023-10-13T03:16:46;7.28;;;3.00;;
70071;SDS011;57434;42.794;23.302;2023-10-13T03:17:48;8.30;;;3.53;;
70071;SDS011;57434;42.794;23.302;2023-10-13T03:18:49;7.53;;;3.42;;
70071;SDS011;57434;42.794;23.302;2023-10-13T03:19:51;7.55;;;3.85;;
70071;SDS011;57434;42.794;23.302;2023-10-13T03:20:52;12.80;;;4.10;;
70071;SDS011;57434;42.794;23.302;2023-10-13T03:21:54;9.00;;;4.25;;
70071;SDS011;57434;42.794;23.302;2023-10-13T03:22:56;8.90;;;3.78;;
70071;SDS011;57434;42.794;23.302;2023-10-13T03:24:00;9.43;;;3.75;;
70071;SDS011;57434;42.794;23.302;2023-10-13T03:25:01;10.65;;;3.97;;
70071;SDS011;57434;42.794;23.302;2023-10-13T03:26:08;8.98;;;3.85;;
70071;SDS011;57434;42.794;23.302;2023-10-13T03:27:10;9.38;;;4.15;;
70071;SDS011;57434;42.794;23.302;2023-10-13T03:28:11;7.77;;;3.80;;
70071;SDS011;57434;42.794;23.302;2023-10-13T03:29:13;10.80;;;3.80;;
70071;SDS011;57434;42.794;23.302;2023-10-13T03:30:14;9.50;;;3.60;;
70071;SDS011;57434;42.794;23.302;2023-10-13T03:31:16;8.98;;;4.20;;
70071;SDS011;57434;42.794;23.302;2023-10-13T03:32:18;9.18;;;3.90;;
70071;SDS011;57434;42.794;23.302;2023-10-13T03:33:20;9.10;;;4.28;;
70071;SDS011;57434;42.794;23.302;2023-10-13T03:34:21;8.20;;;3.80;;
70071;SDS011;57434;42.794;23.302;2023-10-13T03:35:23;10.45;;;3.58;;
70071;SDS011;57434;42.794;23.302;2023-10-13T03:36:25;7.88;;;3.63;;
70071;SDS011;57434;42.794;23.302;2023-10-13T03:37:27;11.27;;;4.18;;
70071;SDS011;57434;42.794;23.302;2023-10-13T03:38:29;10.63;;;4.03;;
70071;SDS011;57434;42.794;23.302;2023-10-13T03:39:30;10.63;;;4.38;;
70071;SDS011;57434;42.794;23.302;2023-10-13T03:40:32;8.35;;;4.15;;
70071;SDS011;57434;42.794;23.302;2023-10-13T03:41:34;10.57;;;4.13;;
70071;SDS011;57434;42.794;23.302;2023-10-13T03:42:35;8.80;;;3.85;;
70071;SDS011;57434;42.794;23.302;2023-10-13T03:43:37;12.18;;;3.95;;
70071;SDS011;57434;42.794;23.302;2023-10-13T03:44:39;12.70;;;4.60;;
70071;SDS011;57434;42.794;23.302;2023-10-13T03:45:41;9.02;;;4.55;;
70071;SDS011;57434;42.794;23.302;2023-10-13T03:46:44;8.80;;;4.30;;
70071;SDS011;57434;42.794;23.302;2023-10-13T03:47:45;10.57;;;4.60;;
70071;SDS011;57434;42.794;23.302;2023-10-13T03:48:47;11.20;;;4.90;;
70071;SDS011;57434;42.794;23.302;2023-10-13T03:49:49;12.77;;;4.72;;
70071;SDS011;57434;42.794;23.302;2023-10-13T03:50:51;9.10;;;4.70;;
70071;SDS011;57434;42.794;23.302;2023-10-13T03:51:52;11.23;;;5.07;;
70071;SDS011;57434;42.794;23.302;2023-10-13T03:52:54;13.35;;;4.80;;
70071;SDS011;57434;42.794;23.302;2023-10-13T03:53:56;12.27;;;5.07;;
70071;SDS011;57434;42.794;23.302;2023-10-13T03:54:58;9.98;;;4.97;;
70071;SDS011;57434;42.794;23.302;2023-10-13T03:56:02;10.02;;;4.55;;
70071;SDS011;57434;42.794;23.302;2023-10-13T03:57:04;9.52;;;4.30;;
70071;SDS011;57434;42.794;23.302;2023-10-13T03:58:06;10.55;;;4.10;;
70071;SDS011;57434;42.794;23.302;2023-10-13T03:59:08;9.03;;;3.80;;
70071;SDS011;57434;42.794;23.302;2023-10-13T04:00:10;8.73;;;3.72;;
70071;SDS011;57434;42.794;23.302;2023-10-13T04:01:11;11.20;;;4.32;;
70071;SDS011;57434;42.794;23.302;2023-10-13T04:02:13;8.52;;;3.72;;
70071;SDS011;57434;42.794;23.302;2023-10-13T04:03:15;8.07;;;4.32;;
70071;SDS011;57434;42.794;23.302;2023-10-13T04:04:17;8.95;;;4.07;;
70071;SDS011;57434;42.794;23.302;2023-10-13T04:05:19;12.05;;;4.35;;
70071;SDS011;57434;42.794;23.302;2023-10-13T04:06:20;10.27;;;3.40;;
70071;SDS011;57434;42.794;23.302;2023-10-13T04:07:22;11.52;;;4.05;;
70071;SDS011;57434;42.794;23.302;2023-10-13T04:08:24;9.90;;;4.63;;
70071;SDS011;57434;42.794;23.302;2023-10-13T04:09:25;8.87;;;3.90;;
70071;SDS011;57434;42.794;23.302;2023-10-13T04:10:27;8.60;;;3.80;;
70071;SDS011;57434;42.794;23.302;2023-10-13T04:11:28;10.57;;;4.00;;
70071;SDS011;57434;42.794;23.302;2023-10-13T04:12:30;9.40;;;4.40;;
70071;SDS011;57434;42.794;23.302;2023-10-13T04:13:32;12.95;;;6.60;;
70071;SDS011;57434;42.794;23.302;2023-10-13T04:14:36;13.18;;;6.18;;
70071;SDS011;57434;42.794;23.302;2023-10-13T04:15:37;10.55;;;4.95;;
70071;SDS011;57434;42.794;23.302;2023-10-13T04:16:39;14.32;;;6.07;;
70071;SDS011;57434;42.794;23.302;2023-10-13T04:17:41;9.25;;;4.53;;
70071;SDS011;57434;42.794;23.302;2023-10-13T04:18:43;10.52;;;4.68;;
70071;SDS011;57434;42.794;23.302;2023-10-13T04:19:45;8.23;;;4.27;;
70071;SDS011;57434;42.794;23.302;2023-10-13T04:20:52;10.25;;;4.30;;
70071;SDS011;57434;42.794;23.302;2023-10-13T04:21:54;10.45;;;3.90;;
70071;SDS011;57434;42.794;23.302;2023-10-13T04:22:56;8.93;;;4.38;;
70071;SDS011;57434;42.794;23.302;2023-10-13T04:23:57;9.55;;;4.45;;
70071;SDS011;57434;42.794;23.302;2023-10-13T04:24:59;15.07;;;7.60;;
70071;SDS011;57434;42.794;23.302;2023-10-13T04:26:04;10.82;;;3.95;;
70071;SDS011;57434;42.794;23.302;2023-10-13T04:27:06;8.15;;;4.05;;
70071;SDS011;57434;42.794;23.302;2023-10-13T04:28:08;13.95;;;5.30;;
70071;SDS011;57434;42.794;23.302;2023-10-13T04:29:10;8.73;;;4.43;;
70071;SDS011;57434;42.794;23.302;2023-10-13T04:30:12;9.77;;;4.43;;
70071;SDS011;57434;42.794;23.302;2023-10-13T04:31:15;10.10;;;4.20;;
70071;SDS011;57434;42.794;23.302;2023-10-13T04:32:17;11.32;;;4.35;;
70071;SDS011;57434;42.794;23.302;2023-10-13T04:33:19;10.55;;;4.45;;
70071;SDS011;57434;42.794;23.302;2023-10-13T04:34:21;8.98;;;4.70;;
70071;SDS011;57434;42.794;23.302;2023-10-13T04:35:22;7.85;;;4.35;;
70071;SDS011;57434;42.794;23.302;2023-10-13T04:36:24;11.25;;;4.10;;
70071;SDS011;57434;42.794;23.302;2023-10-13T04:37:26;8.85;;;4.22;;
70071;SDS011;57434;42.794;23.302;2023-10-13T04:38:27;9.25;;;4.20;;
70071;SDS011;57434;42.794;23.302;2023-10-13T04:39:29;9.73;;;4.50;;
70071;SDS011;57434;42.794;23.302;2023-10-13T04:40:31;13.87;;;4.47;;
70071;SDS011;57434;42.794;23.302;2023-10-13T04:41:36;8.60;;;3.97;;
70071;SDS011;57434;42.794;23.302;2023-10-13T04:42:38;14.45;;;4.32;;
70071;SDS011;57434;42.794;23.302;2023-10-13T04:43:39;8.27;;;4.18;;
70071;SDS011;57434;42.794;23.302;2023-10-13T04:44:41;8.35;;;4.28;;
70071;SDS011;57434;42.794;23.302;2023-10-13T04:45:42;8.98;;;4.13;;
70071;SDS011;57434;42.794;23.302;2023-10-13T04:46:44;19.40;;;7.28;;
70071;SDS011;57434;42.794;23.302;2023-10-13T04:47:46;13.27;;;4.72;;
70071;SDS011;57434;42.794;23.302;2023-10-13T04:48:48;8.35;;;3.83;;
70071;SDS011;57434;42.794;23.302;2023-10-13T04:49:49;12.55;;;4.57;;
70071;SDS011;57434;42.794;23.302;2023-10-13T04:50:52;9.17;;;4.40;;
70071;SDS011;57434;42.794;23.302;2023-10-13T04:51:54;9.25;;;3.72;;
70071;SDS011;57434;42.794;23.302;2023-10-13T04:53:00;11.35;;;4.47;;
70071;SDS011;57434;42.794;23.302;2023-10-13T04:54:01;10.88;;;6.43;;
70071;SDS011;57434;42.794;23.302;2023-10-13T04:55:03;14.38;;;7.13;;
70071;SDS011;57434;42.794;23.302;2023-10-13T04:56:05;13.65;;;5.65;;
70071;SDS011;57434;42.794;23.302;2023-10-13T04:57:06;11.52;;;4.85;;
70071;SDS011;57434;42.794;23.302;2023-10-13T04:58:08;9.77;;;4.85;;
70071;SDS011;57434;42.794;23.302;2023-10-13T04:59:10;9.35;;;4.30;;
70071;SDS011;57434;42.794;23.302;2023-10-13T05:00:13;9.32;;;4.55;;
70071;SDS011;57434;42.794;23.302;2023-10-13T05:01:14;12.17;;;4.70;;
70071;SDS011;57434;42.794;23.302;2023-10-13T05:02:16;10.57;;;4.78;;
70071;SDS011;57434;42.794;23.302;2023-10-13T05:03:18;10.95;;;4.72;;
70071;SDS011;57434;42.794;23.302;2023-10-13T05:04:20;11.45;;;4.18;;
70071;SDS011;57434;42.794;23.302;2023-10-13T05:05:22;10.75;;;4.32;;
70071;SDS011;57434;42.794;23.302;2023-10-13T05:06:24;7.75;;;4.05;;
70071;SDS011;57434;42.794;23.302;2023-10-13T05:07:25;15.50;;;4.65;;
70071;SDS011;57434;42.794;23.302;2023-10-13T05:08:27;9.40;;;4.20;;
70071;SDS011;57434;42.794;23.302;2023-10-13T05:09:29;12.10;;;5.03;;
70071;SDS011;57434;42.794;23.302;2023-10-13T05:10:31;9.80;;;4.50;;
70071;SDS011;57434;42.794;23.302;2023-10-13T05:11:32;14.00;;;4.97;;
70071;SDS011;57434;42.794;23.302;2023-10-13T05:12:34;11.15;;;4.90;;
70071;SDS011;57434;42.794;23.302;2023-10-13T05:13:36;13.52;;;5.28;;
70071;SDS011;57434;42.794;23.302;2023-10-13T05:14:38;10.70;;;4.75;;
70071;SDS011;57434;42.794;23.302;2023-10-13T05:15:43;15.68;;;5.00;;
70071;SDS011;57434;42.794;23.302;2023-10-13T05:16:45;14.45;;;4.70;;
70071;SDS011;57434;42.794;23.302;2023-10-13T05:17:47;18.50;;;5.57;;
70071;SDS011;57434;42.794;23.302;2023-10-13T05:18:48;13.68;;;5.15;;
70071;SDS011;57434;42.794;23.302;2023-10-13T05:19:50;10.57;;;4.93;;
70071;SDS011;57434;42.794;23.302;2023-10-13T05:20:55;13.63;;;4.97;;
70071;SDS011;57434;42.794;23.302;2023-10-13T05:21:56;10.77;;;5.17;;
70071;SDS011;57434;42.794;23.302;2023-10-13T05:22:58;11.95;;;5.25;;
70071;SDS011;57434;42.794;23.302;2023-10-13T05:24:00;12.52;;;5.25;;
70071;SDS011;57434;42.794;23.302;2023-10-13T05:25:01;12.93;;;5.63;;
70071;SDS011;57434;42.794;23.302;2023-10-13T05:26:03;12.50;;;5.82;;
70071;SDS011;57434;42.794;23.302;2023-10-13T05:27:05;11.77;;;5.70;;
70071;SDS011;57434;42.794;23.302;2023-10-13T05:28:06;11.85;;;5.47;;
70071;SDS011;57434;42.794;23.302;2023-10-13T05:29:16;9.77;;;4.65;;
70071;SDS011;57434;42.794;23.302;2023-10-13T05:30:29;13.15;;;5.05;;
70071;SDS011;57434;42.794;23.302;2023-10-13T05:31:31;12.40;;;4.95;;
70071;SDS011;57434;42.794;23.302;2023-10-13T05:32:33;13.13;;;5.73;;
70071;SDS011;57434;42.794;23.302;2023-10-13T05:33:35;14.57;;;5.75;;
70071;SDS011;57434;42.794;23.302;2023-10-13T05:34:36;16.52;;;5.82;;
70071;SDS011;57434;42.794;23.302;2023-10-13T05:35:38;18.35;;;5.70;;
70071;SDS011;57434;42.794;23.302;2023-10-13T05:36:40;9.90;;;4.95;;
70071;SDS011;57434;42.794;23.302;2023-10-13T05:37:42;17.70;;;4.82;;
70071;SDS011;57434;42.794;23.302;2023-10-13T05:38:44;16.35;;;5.90;;
70071;SDS011;57434;42.794;23.302;2023-10-13T05:39:45;17.08;;;5.32;;
70071;SDS011;57434;42.794;23.302;2023-10-13T05:41:54;22.08;;;6.25;;
70071;SDS011;57434;42.794;23.302;2023-10-13T05:42:56;18.13;;;6.50;;
70071;SDS011;57434;42.794;23.302;2023-10-13T05:43:57;14.98;;;6.32;;
70071;SDS011;57434;42.794;23.302;2023-10-13T05:44:59;17.73;;;6.40;;
70071;SDS011;57434;42.794;23.302;2023-10-13T05:46:01;13.93;;;6.50;;
70071;SDS011;57434;42.794;23.302;2023-10-13T05:47:06;20.05;;;8.80;;
70071;SDS011;57434;42.794;23.302;2023-10-13T05:48:08;15.07;;;7.53;;
70071;SDS011;57434;42.794;23.302;2023-10-13T05:49:09;15.93;;;6.50;;
70071;SDS011;57434;42.794;23.302;2023-10-13T05:50:11;14.25;;;6.80;;
70071;SDS011;57434;42.794;23.302;2023-10-13T05:51:13;15.68;;;6.55;;
70071;SDS011;57434;42.794;23.302;2023-10-13T05:52:14;15.43;;;6.97;;
70071;SDS011;57434;42.794;23.302;2023-10-13T05:53:16;16.10;;;6.60;;
70071;SDS011;57434;42.794;23.302;2023-10-13T05:54:18;13.18;;;6.97;;
70071;SDS011;57434;42.794;23.302;2023-10-13T05:55:19;22.60;;;7.80;;
70071;SDS011;57434;42.794;23.302;2023-10-13T05:56:21;17.55;;;7.38;;
70071;SDS011;57434;42.794;23.302;2023-10-13T05:57:23;18.23;;;7.60;;
70071;SDS011;57434;42.794;23.302;2023-10-13T05:58:24;18.20;;;7.20;;
70071;SDS011;57434;42.794;23.302;2023-10-13T05:59:26;21.35;;;7.22;;
70071;SDS011;57434;42.794;23.302;2023-10-13T06:00:28;18.67;;;7.20;;
70071;SDS011;57434;42.794;23.302;2023-10-13T06:01:29;13.77;;;6.88;;
70071;SDS011;57434;42.794;23.302;2023-10-13T06:02:31;16.48;;;7.18;;
70071;SDS011;57434;42.794;23.302;2023-10-13T06:03:33;17.43;;;7.33;;
70071;SDS011;57434;42.794;23.302;2023-10-13T06:04:35;14.90;;;7.70;;
70071;SDS011;57434;42.794;23.302;2023-10-13T06:05:36;14.18;;;7.43;;
70071;SDS011;57434;42.794;23.302;2023-10-13T06:06:39;18.98;;;8.10;;
70071;SDS011;57434;42.794;23.302;2023-10-13T06:07:40;14.85;;;7.50;;
70071;SDS011;57434;42.794;23.302;2023-10-13T06:08:42;18.50;;;7.75;;